Flight Track Log - Related Links

Times and Time Zones

All times are in EDT time to prevent confusion due to time zone crossing. See the OPT448 flight status page for this flight to view local times or setup timezone preferences in your user account.

Time Position Orientation Groundspeed Altitude Reporting Facility
EDT Latitude Longitude Course Direction KTS MPH feet Rate Location/Type
Fri 06:26:50 PM 33.1261 -117.3028 90° East 150 173 1,200  Level Los Angeles Center
Fri 06:27:40 PM 33.1167 -117.3667 260° West 223 257 3,000 1,086 Climbing Southern California TRACON
Fri 06:28:35 PM 33.0667 -117.3500 164° South 244 281 3,100 694 Climbing Southern California TRACON
Fri 06:29:41 PM 33.0167 -117.3000 140° Southeast 235 270 4,400 1,346 Climbing Southern California TRACON
Fri 06:32:00 PM 33.0544 -116.6322 90° East  Level Estimated
Fri 06:32:00 PM 33.0864 -117.1075 67° East 280 322 7,700  Level Los Angeles Center
Fri 06:33:15 PM 33.0950 -117.0081 84° East 300 345 9,600 1,739 Climbing Los Angeles Center
Fri 06:34:18 PM 33.1083 -116.8847 83° East 309 356 11,700 1,694 Climbing Los Angeles Center
Fri 06:35:19 PM 33.1206 -116.7694 83° East 338 389 13,100 1,463 Climbing Los Angeles Center
Fri 06:36:21 PM 33.1331 -116.6519 83° East 353 406 14,700 1,597 Climbing Los Angeles Center
Fri 06:37:23 PM 33.1381 -116.5331 87° East 357 411 16,400 1,597 Climbing Los Angeles Center
Fri 06:38:25 PM 33.1347 -116.4144 92° East 354 407 18,000 1,584 Climbing Los Angeles Center
Fri 06:39:28 PM 33.1308 -116.2683 92° East 362 417 19,700 1,392 Climbing Los Angeles Center
Fri 06:40:30 PM 33.1250 -116.1403 93° East 383 441 20,900 1,258 Climbing Los Angeles Center
Fri 06:41:32 PM 33.1214 -116.0028 92° East 406 467 22,300 1,355 Climbing Los Angeles Center
Fri 06:42:34 PM 33.1147 -115.8650 93° East 414 476 23,700 1,355 Climbing Los Angeles Center
Fri 06:43:36 PM 33.1089 -115.7250 93° East 420 483 25,100 1,403 Climbing Los Angeles Center
Fri 06:44:38 PM 33.1044 -115.5836 92° East 426 490 26,600 1,548 Climbing Los Angeles Center
Fri 06:45:40 PM 33.0972 -115.4119 93° East 431 496 28,300 1,452 Climbing Los Angeles Center
Fri 06:46:42 PM 33.0900 -115.2672 93° East 435 501 29,600 1,161 Climbing Los Angeles Center
Fri 06:47:44 PM 33.0850 -115.1206 92° East 442 509 30,700 1,065 Climbing Los Angeles Center
Fri 06:48:46 PM 33.0786 -114.9736 93° East 442 509 31,800 1,056 Climbing Los Angeles Center
Fri 06:49:49 PM 33.0725 -114.8278 93° East 439 505 32,900 1,008 Climbing Los Angeles Center
Fri 06:50:51 PM 33.0669 -114.6808 93° East 441 507 33,900 1,113 Climbing Los Angeles Center
Fri 06:51:53 PM 33.0547 -114.5058 95° East 438 504 35,200 1,113 Climbing Los Angeles Center
Fri 06:52:55 PM 33.0483 -114.3600 93° East 439 505 36,200 897 Climbing Los Angeles Center
Fri 06:53:20 PM 33.0467 -114.2933 92° East 441 507 36,500 828 Climbing Albuquerque Center
Fri 06:54:22 PM 33.0397 -114.1469 93° East 442 509 37,400 823 Climbing Albuquerque Center
Fri 06:55:24 PM 33.0322 -114.0008 93° East 442 509 38,200 829 Climbing Albuquerque Center
Fri 06:56:25 PM 33.0244 -113.8567 94° East 440 506 39,100 780 Climbing Albuquerque Center
Fri 06:57:27 PM 33.0181 -113.7122 93° East 437 503 39,800 581 Climbing Albuquerque Center
Fri 06:58:29 PM 33.0103 -113.5681 94° East 437 503 40,300 439 Climbing Albuquerque Center
Fri 06:59:30 PM 33.0006 -113.4239 95° East 437 503 40,700 341 Climbing Albuquerque Center
Fri 07:00:32 PM 32.9928 -113.2775 94° East 440 506 41,000 145 Climbing Albuquerque Center
Fri 07:01:34 PM 32.9822 -113.0981 94° East 449 517 41,000 -49 Level Albuquerque Center
Fri 07:02:35 PM 32.9736 -112.9483 94° East 452 520 40,900  Descending Albuquerque Center
Fri 07:03:37 PM 32.9644 -112.7992 94° East 450 518 41,000 48 Climbing Albuquerque Center
Fri 07:04:39 PM 32.9539 -112.6497 95° East 450 518 41,000  Level Albuquerque Center
Fri 07:05:40 PM 32.9297 -112.5056 101° East 443 510 41,000  Level Albuquerque Center
Fri 07:06:42 PM 32.9069 -112.3594 100° East 447 514 41,000  Level Albuquerque Center
Fri 07:07:43 PM 32.8833 -112.1983 100° East 445 512 41,000  Level Albuquerque Center
Fri 07:08:45 PM 32.8614 -112.0556 100° East 443 510 41,000  Level Albuquerque Center
Fri 07:09:47 PM 32.8386 -111.9122 101° East 444 511 41,000  Level Albuquerque Center
Fri 07:10:48 PM 32.8164 -111.7678 100° East 445 512 41,000  Level Albuquerque Center
Fri 07:11:50 PM 32.7933 -111.6239 101° East 446 513 41,000  Level Albuquerque Center
Fri 07:12:51 PM 32.7708 -111.4811 101° East 443 510 41,000  Level Albuquerque Center
Fri 07:13:53 PM 32.7472 -111.3383 101° East 442 509 41,000  Level Albuquerque Center
Fri 07:14:54 PM 32.7203 -111.1664 101° East 444 511 41,000  Level Albuquerque Center
Fri 07:15:56 PM 32.6964 -111.0244 101° East 442 509 41,000  Level Albuquerque Center
Fri 07:16:57 PM 32.6728 -110.8828 101° East 441 507 41,000  Level Albuquerque Center
Fri 07:17:59 PM 32.6494 -110.7408 101° East 441 507 41,000  Level Albuquerque Center
Fri 07:19:01 PM 32.6256 -110.5989 101° East 440 506 41,000  Level Albuquerque Center
Fri 07:20:02 PM 32.6017 -110.4581 101° East 439 505 41,000  Level Albuquerque Center
Fri 07:21:04 PM 32.5742 -110.2931 101° East 441 507 41,000  Level Albuquerque Center
Fri 07:22:05 PM 32.5489 -110.1522 102° East 442 509 41,000  Level Albuquerque Center
Fri 07:23:07 PM 32.5231 -110.0114 102° East 442 509 41,000  Level Albuquerque Center
Fri 07:24:08 PM 32.5003 -109.8703 101° East 442 509 41,000  Level Albuquerque Center
Fri 07:25:09 PM 32.4739 -109.7281 102° East 446 513 41,000  Level Albuquerque Center
Fri 07:26:11 PM 32.4419 -109.5550 102° East 453 521 41,000  Level Albuquerque Center
Fri 07:27:12 PM 32.4172 -109.4147 102° East 447 514 41,000  Level Albuquerque Center
Fri 07:28:14 PM 32.3919 -109.2725 102° East 447 514 41,000  Level Albuquerque Center
Fri 07:29:15 PM 32.3658 -109.1306 102° East 448 516 41,000  Level Albuquerque Center
Fri 07:30:17 PM 32.3394 -108.9886 102° East 449 517 41,000  Level Albuquerque Center
Fri 07:31:18 PM 32.3142 -108.8464 102° East 449 517 41,000  Level Albuquerque Center
Fri 07:32:19 PM 32.2819 -108.6750 102° East 452 520 41,000  Level Albuquerque Center
Fri 07:33:21 PM 32.2567 -108.5333 102° East 449 517 41,000  Level Albuquerque Center
Fri 07:34:22 PM 32.2292 -108.3911 103° East 451 519 41,000  Level Albuquerque Center
Fri 07:35:24 PM 32.2006 -108.2450 103° East 455 524 41,000  Level Albuquerque Center
Fri 07:36:25 PM 32.1725 -108.0994 103° East 457 526 41,000  Level Albuquerque Center
Fri 07:37:26 PM 32.1472 -107.9553 102° East 454 522 41,000  Level Albuquerque Center
Fri 07:38:28 PM 32.1144 -107.7836 103° East 451 519 41,000  Level Albuquerque Center
Fri 07:39:29 PM 32.0872 -107.6406 103° East 449 517 41,000  Level Albuquerque Center
Fri 07:40:31 PM 32.0606 -107.4989 102° East 448 516 41,000  Level Albuquerque Center
Fri 07:41:32 PM 32.0328 -107.3575 103° East 447 514 41,000  Level Albuquerque Center
Fri 07:42:34 PM 32.0061 -107.2161 103° East 446 513 41,000  Level Albuquerque Center
Fri 07:43:35 PM 31.9783 -107.0761 103° East 444 511 41,000  Level Albuquerque Center
Fri 07:44:36 PM 31.9503 -106.9350 103° East 446 513 41,000  Level Albuquerque Center
Fri 07:45:38 PM 31.9156 -106.7681 104° East 442 509 41,000  Level Albuquerque Center
Fri 07:46:39 PM 31.8867 -106.6283 104° East 442 509 41,000  Level Albuquerque Center
Fri 07:47:41 PM 31.8597 -106.4975 104° East 446 513 41,000  Level Albuquerque Center
Fri 07:48:42 PM 31.8319 -106.3547 103° East 449 517 41,000  Level Albuquerque Center
Fri 07:49:44 PM 31.7942 -106.1864 105° East 450 518 41,000  Level Albuquerque Center
Fri 07:50:45 PM 31.7606 -106.0478 106° East 442 509 41,000  Level Albuquerque Center
Fri 07:51:46 PM 31.7267 -105.9094 106° East 441 507 41,000  Level Albuquerque Center
Fri 07:52:48 PM 31.6936 -105.7706 106° East 442 509 41,000  Level Albuquerque Center
Fri 07:53:49 PM 31.6597 -105.6308 106° East 444 511 41,000  Level Albuquerque Center
Fri 07:54:51 PM 31.6261 -105.4906 106° East 446 513 41,000  Level Albuquerque Center
Fri 07:55:53 PM 31.5922 -105.3500 106° East 447 514 41,000  Level Albuquerque Center
Fri 07:56:54 PM 31.5575 -105.2089 106° East 448 516 41,000  Level Albuquerque Center
Fri 07:57:56 PM 31.5236 -105.0669 106° East 449 517 41,000  Level Albuquerque Center
Fri 07:58:57 PM 31.4889 -104.9239 106° East 451 519 41,000  Level Albuquerque Center
Fri 07:59:59 PM 31.4461 -104.7556 107° East 449 517 41,000  Level Albuquerque Center
Fri 08:01:00 PM 31.4111 -104.6139 106° East 450 518 41,000  Level Albuquerque Center
Fri 08:02:02 PM 31.3758 -104.4733 106° East 448 516 41,000  Level Albuquerque Center
Fri 08:03:03 PM 31.3400 -104.3331 107° East 448 516 41,000  Level Albuquerque Center
Fri 08:04:05 PM 31.3056 -104.1922 106° East 449 517 41,000  Level Albuquerque Center
Fri 08:05:07 PM 31.2697 -104.0514 107° East 451 519 41,000  Level Albuquerque Center
Fri 08:06:08 PM 31.2317 -103.9128 108° East 449 517 41,000  Level Albuquerque Center
Fri 08:07:10 PM 31.1908 -103.7533 107° East 447 514 41,000  Level Albuquerque Center
Fri 08:08:12 PM 31.1544 -103.6172 107° East 441 507 41,000  Level Albuquerque Center
Fri 08:09:13 PM 31.1167 -103.4794 108° East 445 512 41,000  Level Albuquerque Center
Fri 08:10:15 PM 31.0811 -103.3406 107° East 448 516 41,000  Level Albuquerque Center
Fri 08:11:16 PM 31.0444 -103.2008 107° East 451 519 41,000  Level Albuquerque Center
Fri 08:12:18 PM 31.0092 -103.0633 107° East 447 514 41,000  Level Albuquerque Center
Fri 08:13:20 PM 30.9647 -102.8967 107° East 450 518 41,000  Level Albuquerque Center
Fri 08:14:21 PM 30.9269 -102.7556 107° East 456 525 41,000  Level Albuquerque Center
Fri 08:15:23 PM 30.8886 -102.6150 108° East 457 526 41,000  Level Albuquerque Center
Fri 08:16:25 PM 30.8503 -102.4742 108° East 459 528 41,000  Level Albuquerque Center
Fri 08:17:26 PM 30.8131 -102.3331 107° East 461 531 41,000  Level Albuquerque Center
Fri 08:18:28 PM 30.7747 -102.1919 108° East 461 531 41,000  Level Albuquerque Center
Fri 08:19:29 PM 30.7283 -102.0222 108° East 462 532 41,000  Level Albuquerque Center
Fri 08:20:31 PM 30.6903 -101.8822 108° East 461 531 41,000  Level Albuquerque Center
Fri 08:21:33 PM 30.6508 -101.7422 108° East 460 529 41,000 -50 Level Albuquerque Center
Fri 08:22:31 PM 30.6131 -101.6003 107° East 461 531 40,900  Descending Houston Center
Fri 08:23:33 PM 30.5767 -101.4678 108° East 457 526 41,000 48 Climbing Houston Center
Fri 08:24:35 PM 30.5364 -101.3281 108° East 457 526 41,000  Level Houston Center
Fri 08:25:37 PM 30.4958 -101.1872 108° East 459 528 41,000  Level Houston Center
Fri 08:26:38 PM 30.4489 -101.0167 108° East 464 534 41,000 -293 Level Houston Center
Fri 08:27:40 PM 30.4086 -100.8772 108° East 458 527 40,400 -774 Descending Houston Center
Fri 08:28:42 PM 30.3694 -100.7378 108° East 456 525 39,400 -1,452 Descending Houston Center
Fri 08:29:44 PM 30.3289 -100.5958 108° East 460 529 37,400 -1,935 Descending Houston Center
Fri 08:30:46 PM 30.2897 -100.4581 108° East 453 521 35,400 -1,984 Descending Houston Center
Fri 08:31:48 PM 30.2522 -100.3286 109° East 433 498 33,300 -2,000 Descending Houston Center
Fri 08:32:49 PM 30.2153 -100.1986 108° East 424 488 31,300 -2,000 Descending Houston Center
Fri 08:33:51 PM 30.1764 -100.0619 108° East 435 501 29,200 -1,984 Descending Houston Center
Fri 08:34:53 PM 30.1333 -99.9228 110° East 453 521 27,200 -2,274 Descending Houston Center
Fri 08:35:55 PM 30.0842 -99.7561 109° East 456 525 24,500 -2,565 Descending Houston Center
Fri 08:36:57 PM 30.0458 -99.6272 109° East 430 495 21,900 -2,468 Descending Houston Center
Fri 08:37:59 PM 30.0100 -99.5031 108° East 412 474 19,400 -2,390 Descending Houston Center
Fri 08:39:00 PM 29.9742 -99.3817 109° East 402 463 17,000 -2,244 Descending Houston Center
Fri 08:40:02 PM 29.9389 -99.2636 109° East 392 451 14,800 -2,182 Descending Houston Center
Fri 08:40:28 PM 29.9206 -99.2064 110° East 383 441 13,800 -2,032 Descending Houston Center
Fri 08:41:04 PM 29.9011 -99.1531 113° Southeast 373 429 12,700 -2,233 Descending Houston Center
Fri 08:41:54 PM 29.8631 -99.0539 114° Southeast 343 395 10,600 -1,582 Descending Houston Center
Fri 08:42:54 PM 29.8300 -98.9639 113° Southeast 293 337 9,800 -1,200 Descending Houston Center
Fri 08:43:54 PM 29.7942 -98.8908 119° Southeast 249 287 8,200 -1,500 Descending Houston Center
Fri 08:44:10 PM 29.7861 -98.8733 118° Southeast 264 304 7,900 -1,574 Descending Houston Center
Fri 08:44:55 PM 29.7544 -98.8211 125° Southeast 259 298 6,600 -1,869 Descending Houston Center
Fri 08:45:11 PM 29.7428 -98.7983 121° Southeast 263 303 6,000 -1,574 Descending Houston Center
Fri 08:45:56 PM 29.7147 -98.7511 124° Southeast 263 303 5,000 -968 Descending Houston Center
Fri 08:46:13 PM 29.7028 -98.7297 123° Southeast 259 298 5,000 -200 Level Houston Center
Fri 08:46:56 PM 29.6797 -98.6903 124° Southeast 227 261 4,800 -484 Descending Houston Center
Fri 08:47:15 PM 29.6678 -98.6700 124° Southeast 228 262 4,500 -984 Descending Houston Center
Fri 08:47:57 PM 29.6428 -98.6297 126° Southeast 221 254 3,800 -1,065 Descending Houston Center
Fri 08:48:17 PM 29.6303 -98.6064 122° Southeast 224 258 3,400 -885 Descending Houston Center
Fri 08:48:58 PM 29.6081 -98.5689 124° Southeast 217 250 2,900 -885 Descending Houston Center
Fri 08:49:18 PM 29.5967 -98.5531 130° Southeast 212 244 2,500 -1,000 Descending Houston Center
Fri 08:49:52 PM 29.5794 -98.5339 136° Southeast 174 200 2,000 -871 Descending Houston Center
Fri 08:50:20 PM 29.5681 -98.5178 129° Southeast 154 177 1,600 -787 Descending Houston Center
Fri 08:50:53 PM 29.5558 -98.5031 134° Southeast 99 114 1,200 -581 Descending Houston Center
Fri 08:51:22 PM 29.5472 -98.4894 126° Southeast 112 129 1,000 -414 Descending Houston Center
Fri 08:53:00 PM 29.5333 -98.4667 139° Southeast  Level FlightAware Approximate
Fri 09:00:00 PM 29.5340 -98.4691 139° Southeast  Level Estimated
Fri 09:01:00 PM 29.5333 -98.4667 139° Southeast  Level FlightAware Approximate

Login

Don't have an account? Register now (free) for customized features, flight alerts, and more!